DLH8MC EDDB-EDDM
Flight info
| Callsign | DLH8MC |
|---|---|
| Flight time | 0h 56m |
| Altitude | 28000 |
| Route | LUROS3Q LUROS Y211 BEBKU Z36 MAREM DCT VESUB T106 TUSTO T108 LANDU LANDU2B |
| Aircraft | A320/M-SDE1E2E3FGHIRWY/SB1 |
Departure
| Time | 2026-05-07 04:13 |
|---|---|
| Airport | Berlin Brandenburg Airport (EDDB) |
Arrival
| Time | 2026-05-07 05:10 |
|---|---|
| Airport | Munich Airport (EDDM) |
| Time | Latitude | Longitude | Altitude | Speed | Heading |
|---|---|---|---|---|---|
| 2026-05-07 03:28 | 52.36648 | 13.50422 | 155 ft | 0 kts | 69° |
| 2026-05-07 03:57 | 52.36644 | 13.50402 | 154 ft | 4 kts | 69° |
| 2026-05-07 03:57 | 52.36634 | 13.50361 | 154 ft | 4 kts | 69° |
| 2026-05-07 03:57 | 52.36624 | 13.50320 | 153 ft | 4 kts | 69° |
| 2026-05-07 03:57 | 52.36618 | 13.50293 | 153 ft | 4 kts | 69° |
| 2026-05-07 03:58 | 52.36613 | 13.50273 | 152 ft | 0 kts | 69° |
| 2026-05-07 03:58 | 52.36602 | 13.50300 | 153 ft | 4 kts | 143° |
| 2026-05-07 03:58 | 52.36577 | 13.50317 | 153 ft | 4 kts | 160° |
| 2026-05-07 03:58 | 52.36554 | 13.50331 | 153 ft | 2 kts | 159° |
| 2026-05-07 03:59 | 52.36553 | 13.50331 | 153 ft | 0 kts | 159° |
| 2026-05-07 04:03 | 52.36550 | 13.50333 | 153 ft | 2 kts | 159° |
| 2026-05-07 04:03 | 52.36531 | 13.50345 | 153 ft | 6 kts | 159° |
| 2026-05-07 04:03 | 52.36469 | 13.50385 | 153 ft | 13 kts | 159° |
| 2026-05-07 04:04 | 52.36383 | 13.50439 | 153 ft | 14 kts | 158° |
| 2026-05-07 04:04 | 52.36287 | 13.50499 | 153 ft | 15 kts | 158° |
| 2026-05-07 04:04 | 52.36185 | 13.50568 | 153 ft | 17 kts | 156° |
| 2026-05-07 04:04 | 52.36073 | 13.50633 | 152 ft | 18 kts | 163° |
| 2026-05-07 04:05 | 52.35954 | 13.50705 | 152 ft | 19 kts | 156° |
| 2026-05-07 04:05 | 52.35837 | 13.50783 | 152 ft | 17 kts | 159° |
| 2026-05-07 04:05 | 52.35751 | 13.50824 | 150 ft | 8 kts | 187° |
| 2026-05-07 04:05 | 52.35712 | 13.50769 | 149 ft | 8 kts | 245° |
| 2026-05-07 04:06 | 52.35693 | 13.50677 | 148 ft | 9 kts | 250° |
| 2026-05-07 04:06 | 52.35671 | 13.50590 | 148 ft | 8 kts | 246° |
| 2026-05-07 04:06 | 52.35649 | 13.50506 | 148 ft | 9 kts | 248° |
| 2026-05-07 04:06 | 52.35623 | 13.50402 | 148 ft | 13 kts | 247° |
| 2026-05-07 04:07 | 52.35582 | 13.50221 | 148 ft | 21 kts | 249° |
| 2026-05-07 04:07 | 52.35519 | 13.49956 | 148 ft | 25 kts | 249° |
| 2026-05-07 04:07 | 52.35475 | 13.49771 | 148 ft | 10 kts | 249° |
| 2026-05-07 04:07 | 52.35434 | 13.49597 | 148 ft | 22 kts | 249° |
| 2026-05-07 04:08 | 52.35397 | 13.49445 | 148 ft | 9 kts | 248° |
| 2026-05-07 04:08 | 52.35376 | 13.49357 | 148 ft | 8 kts | 248° |
| 2026-05-07 04:08 | 52.35343 | 13.49216 | 148 ft | 20 kts | 249° |
| 2026-05-07 04:08 | 52.35288 | 13.48991 | 148 ft | 21 kts | 251° |
| 2026-05-07 04:09 | 52.35238 | 13.48780 | 149 ft | 19 kts | 248° |
| 2026-05-07 04:09 | 52.35194 | 13.48595 | 149 ft | 16 kts | 249° |
| 2026-05-07 04:09 | 52.35158 | 13.48496 | 150 ft | 3 kts | 163° |
| 2026-05-07 04:09 | 52.35147 | 13.48510 | 150 ft | 4 kts | 145° |
| 2026-05-07 04:10 | 52.35133 | 13.48528 | 151 ft | 0 kts | 139° |
| 2026-05-07 04:11 | 52.35117 | 13.48557 | 152 ft | 9 kts | 128° |
| 2026-05-07 04:11 | 52.35099 | 13.48641 | 154 ft | 7 kts | 99° |
| 2026-05-07 04:12 | 52.35087 | 13.48771 | 156 ft | 14 kts | 98° |
| 2026-05-07 04:12 | 52.35069 | 13.48931 | 157 ft | 15 kts | 113° |
| 2026-05-07 04:12 | 52.35054 | 13.49003 | 157 ft | 0 kts | 68° |
| 2026-05-07 04:13 | 52.35083 | 13.49123 | 158 ft | 42 kts | 69° |
| 2026-05-07 04:13 | 52.35281 | 13.49955 | 156 ft | 111 kts | 69° |
| 2026-05-07 04:13 | 52.35631 | 13.51403 | 253 ft | 153 kts | 66° |
| 2026-05-07 04:13 | 52.35989 | 13.53016 | 980 ft | 153 kts | 79° |
| 2026-05-07 04:14 | 52.35705 | 13.54711 | 1708 ft | 166 kts | 130° |
| 2026-05-07 04:14 | 52.34797 | 13.55892 | 2442 ft | 168 kts | 140° |
| 2026-05-07 04:14 | 52.33854 | 13.57001 | 3105 ft | 167 kts | 141° |
| 2026-05-07 04:14 | 52.32898 | 13.58125 | 3600 ft | 176 kts | 142° |
| 2026-05-07 04:15 | 52.31846 | 13.59373 | 3888 ft | 198 kts | 141° |
| 2026-05-07 04:15 | 52.30882 | 13.61047 | 4272 ft | 208 kts | 110° |
| 2026-05-07 04:15 | 52.30803 | 13.63402 | 4639 ft | 220 kts | 73° |
| 2026-05-07 04:15 | 52.31289 | 13.65829 | 4995 ft | 234 kts | 70° |
| 2026-05-07 04:16 | 52.31819 | 13.68351 | 5006 ft | 234 kts | 70° |
| 2026-05-07 04:16 | 52.32343 | 13.70858 | 5066 ft | 236 kts | 70° |
| 2026-05-07 04:16 | 52.32811 | 13.73461 | 5856 ft | 238 kts | 80° |
| 2026-05-07 04:16 | 52.32888 | 13.76250 | 6414 ft | 257 kts | 92° |
| 2026-05-07 04:17 | 52.32787 | 13.79271 | 6915 ft | 273 kts | 93° |
| 2026-05-07 04:17 | 52.32669 | 13.82403 | 7679 ft | 279 kts | 94° |
| 2026-05-07 04:17 | 52.32544 | 13.85601 | 8505 ft | 283 kts | 94° |
| 2026-05-07 04:17 | 52.32416 | 13.88880 | 9351 ft | 287 kts | 95° |
| 2026-05-07 04:18 | 52.32285 | 13.92172 | 9899 ft | 291 kts | 95° |
| 2026-05-07 04:18 | 52.32154 | 13.95540 | 10633 ft | 295 kts | 95° |
| 2026-05-07 04:18 | 52.32026 | 13.98911 | 11371 ft | 299 kts | 95° |
| 2026-05-07 04:18 | 52.31849 | 14.02312 | 12102 ft | 302 kts | 103° |
| 2026-05-07 04:19 | 52.31074 | 14.05540 | 12826 ft | 303 kts | 125° |
| 2026-05-07 04:19 | 52.29647 | 14.08064 | 13438 ft | 308 kts | 145° |
| 2026-05-07 04:19 | 52.27688 | 14.09608 | 13754 ft | 319 kts | 169° |
| 2026-05-07 04:19 | 52.25504 | 14.10078 | 14542 ft | 316 kts | 175° |
| 2026-05-07 04:20 | 52.23319 | 14.10501 | 15260 ft | 317 kts | 174° |
| 2026-05-07 04:20 | 52.21128 | 14.10955 | 15942 ft | 319 kts | 174° |
| 2026-05-07 04:20 | 52.18918 | 14.11423 | 16611 ft | 321 kts | 174° |
| 2026-05-07 04:21 | 52.14390 | 14.12388 | 17939 ft | 327 kts | 174° |
| 2026-05-07 04:21 | 52.12124 | 14.12865 | 18524 ft | 329 kts | 174° |
| 2026-05-07 04:21 | 52.09841 | 14.13338 | 19080 ft | 332 kts | 174° |
| 2026-05-07 04:21 | 52.07545 | 14.13810 | 19636 ft | 333 kts | 174° |
| 2026-05-07 04:22 | 52.05236 | 14.14283 | 20212 ft | 335 kts | 174° |
| 2026-05-07 04:22 | 52.02642 | 14.14814 | 20836 ft | 338 kts | 174° |
| 2026-05-07 04:22 | 52.00348 | 14.15285 | 21374 ft | 340 kts | 174° |
| 2026-05-07 04:22 | 51.98039 | 14.15761 | 21913 ft | 342 kts | 174° |
| 2026-05-07 04:23 | 51.95644 | 14.16257 | 22462 ft | 344 kts | 174° |
| 2026-05-07 04:23 | 51.93267 | 14.16751 | 22990 ft | 347 kts | 174° |
| 2026-05-07 04:23 | 51.90851 | 14.16931 | 23504 ft | 347 kts | 185° |
| 2026-05-07 04:23 | 51.88464 | 14.16301 | 23935 ft | 349 kts | 195° |
| 2026-05-07 04:24 | 51.86154 | 14.14905 | 24139 ft | 359 kts | 203° |
| 2026-05-07 04:24 | 51.83845 | 14.13278 | 24498 ft | 363 kts | 203° |
| 2026-05-07 04:24 | 51.81440 | 14.11595 | 24925 ft | 365 kts | 203° |
| 2026-05-07 04:24 | 51.79858 | 14.10495 | 25195 ft | 367 kts | 202° |
| 2026-05-07 04:25 | 51.77452 | 14.08830 | 25346 ft | 377 kts | 202° |
| 2026-05-07 04:25 | 51.74998 | 14.07142 | 25653 ft | 381 kts | 202° |
| 2026-05-07 04:25 | 51.72542 | 14.05456 | 26030 ft | 383 kts | 202° |
| 2026-05-07 04:25 | 51.70091 | 14.03774 | 26421 ft | 385 kts | 202° |
| 2026-05-07 04:26 | 51.67583 | 14.02052 | 26837 ft | 386 kts | 202° |
| 2026-05-07 04:26 | 51.65078 | 14.00328 | 27234 ft | 388 kts | 202° |
| 2026-05-07 04:26 | 51.62555 | 13.98591 | 27628 ft | 389 kts | 202° |
| 2026-05-07 04:26 | 51.60040 | 13.96857 | 28024 ft | 390 kts | 202° |
| 2026-05-07 04:27 | 51.57528 | 13.95128 | 28419 ft | 392 kts | 202° |
| 2026-05-07 04:27 | 51.55022 | 13.93413 | 28799 ft | 393 kts | 202° |
| 2026-05-07 04:27 | 51.52492 | 13.91691 | 29179 ft | 394 kts | 202° |
| 2026-05-07 04:27 | 51.49927 | 13.89947 | 29559 ft | 396 kts | 202° |
| 2026-05-07 04:28 | 51.47382 | 13.88217 | 29924 ft | 397 kts | 202° |
| 2026-05-07 04:28 | 51.44765 | 13.86809 | 30213 ft | 398 kts | 192° |
| 2026-05-07 04:28 | 51.42009 | 13.85992 | 30495 ft | 399 kts | 190° |
| 2026-05-07 04:28 | 51.39263 | 13.85205 | 30771 ft | 401 kts | 190° |
| 2026-05-07 04:29 | 51.36525 | 13.84415 | 31036 ft | 402 kts | 191° |
| 2026-05-07 04:29 | 51.33698 | 13.83597 | 31365 ft | 402 kts | 191° |
| 2026-05-07 04:29 | 51.30903 | 13.82788 | 31767 ft | 400 kts | 191° |
| 2026-05-07 04:29 | 51.28179 | 13.82004 | 32153 ft | 399 kts | 191° |
| 2026-05-07 04:30 | 51.25446 | 13.81216 | 32537 ft | 397 kts | 191° |
| 2026-05-07 04:30 | 51.22701 | 13.80426 | 32899 ft | 396 kts | 191° |
| 2026-05-07 04:30 | 51.19979 | 13.79646 | 33268 ft | 396 kts | 191° |
| 2026-05-07 04:30 | 51.17245 | 13.78863 | 33659 ft | 395 kts | 191° |
| 2026-05-07 04:31 | 51.14507 | 13.78079 | 34001 ft | 394 kts | 191° |
| 2026-05-07 04:31 | 51.11806 | 13.77301 | 34258 ft | 394 kts | 191° |
| 2026-05-07 04:31 | 51.09074 | 13.76514 | 34485 ft | 395 kts | 191° |
| 2026-05-07 04:31 | 51.06364 | 13.75737 | 34718 ft | 396 kts | 191° |
| 2026-05-07 04:32 | 51.03610 | 13.74954 | 34943 ft | 397 kts | 191° |
| 2026-05-07 04:32 | 51.00891 | 13.74185 | 35147 ft | 397 kts | 191° |
| 2026-05-07 04:32 | 50.98163 | 13.73414 | 35351 ft | 398 kts | 191° |
| 2026-05-07 04:32 | 50.95439 | 13.72641 | 35552 ft | 399 kts | 191° |
| 2026-05-07 04:33 | 50.92631 | 13.71845 | 35760 ft | 400 kts | 191° |
| 2026-05-07 04:33 | 50.89893 | 13.71069 | 35848 ft | 399 kts | 193° |
| 2026-05-07 04:33 | 50.84473 | 13.68730 | 35862 ft | 398 kts | 197° |
| 2026-05-07 04:34 | 50.80052 | 13.66728 | 35857 ft | 397 kts | 197° |
| 2026-05-07 04:34 | 50.74702 | 13.64311 | 35854 ft | 397 kts | 197° |
| 2026-05-07 04:35 | 50.69320 | 13.61859 | 35855 ft | 398 kts | 198° |
| 2026-05-07 04:35 | 50.64010 | 13.59210 | 35852 ft | 397 kts | 199° |
| 2026-05-07 04:36 | 50.58709 | 13.56500 | 35853 ft | 397 kts | 199° |
| 2026-05-07 04:36 | 50.53353 | 13.53800 | 35849 ft | 397 kts | 199° |
| 2026-05-07 04:37 | 50.48069 | 13.51176 | 35848 ft | 397 kts | 198° |
| 2026-05-07 04:37 | 50.42793 | 13.48573 | 35850 ft | 397 kts | 199° |
| 2026-05-07 04:38 | 50.37500 | 13.45951 | 35851 ft | 397 kts | 199° |
| 2026-05-07 04:38 | 50.32186 | 13.43319 | 35852 ft | 397 kts | 199° |
| 2026-05-07 04:39 | 50.26891 | 13.40718 | 35855 ft | 397 kts | 199° |
| 2026-05-07 04:39 | 50.21622 | 13.38142 | 35859 ft | 397 kts | 199° |
| 2026-05-07 04:40 | 50.16344 | 13.35561 | 35858 ft | 397 kts | 199° |
| 2026-05-07 04:40 | 50.11085 | 13.32983 | 35861 ft | 397 kts | 199° |
| 2026-05-07 04:41 | 50.05813 | 13.30419 | 35868 ft | 396 kts | 199° |
| 2026-05-07 04:41 | 50.00554 | 13.27864 | 35870 ft | 396 kts | 199° |
| 2026-05-07 04:42 | 49.95294 | 13.25300 | 35883 ft | 396 kts | 199° |
| 2026-05-07 04:42 | 49.90047 | 13.22768 | 35887 ft | 395 kts | 199° |
| 2026-05-07 04:43 | 49.84792 | 13.20240 | 35894 ft | 394 kts | 199° |
| 2026-05-07 04:43 | 49.79549 | 13.17713 | 35883 ft | 395 kts | 199° |
| 2026-05-07 04:44 | 49.74286 | 13.15186 | 35877 ft | 396 kts | 199° |
| 2026-05-07 04:44 | 49.68954 | 13.12619 | 35878 ft | 397 kts | 199° |
| 2026-05-07 04:45 | 49.63675 | 13.10089 | 35881 ft | 398 kts | 199° |
| 2026-05-07 04:45 | 49.61025 | 13.08821 | 35168 ft | 401 kts | 199° |
| 2026-05-07 04:45 | 49.58310 | 13.07523 | 34091 ft | 400 kts | 199° |
| 2026-05-07 04:46 | 49.55708 | 13.06285 | 33142 ft | 394 kts | 199° |
| 2026-05-07 04:46 | 49.53108 | 13.05053 | 32210 ft | 387 kts | 199° |
| 2026-05-07 04:46 | 49.50536 | 13.03831 | 31294 ft | 380 kts | 200° |
| 2026-05-07 04:46 | 49.48028 | 13.02640 | 30434 ft | 373 kts | 200° |
| 2026-05-07 04:47 | 49.46354 | 13.01847 | 29847 ft | 369 kts | 200° |
| 2026-05-07 04:47 | 49.43162 | 13.00336 | 28779 ft | 366 kts | 200° |
| 2026-05-07 04:47 | 49.41556 | 12.99472 | 28391 ft | 361 kts | 206° |
| 2026-05-07 04:47 | 49.39294 | 12.97826 | 27936 ft | 355 kts | 207° |
| 2026-05-07 04:48 | 49.37053 | 12.96181 | 27501 ft | 349 kts | 207° |
| 2026-05-07 04:48 | 49.34875 | 12.94591 | 27077 ft | 344 kts | 207° |
| 2026-05-07 04:48 | 49.32704 | 12.93011 | 26652 ft | 339 kts | 207° |
| 2026-05-07 04:48 | 49.30555 | 12.91452 | 26222 ft | 335 kts | 207° |
| 2026-05-07 04:49 | 49.28463 | 12.89934 | 25804 ft | 331 kts | 207° |
| 2026-05-07 04:49 | 49.26394 | 12.88436 | 25372 ft | 328 kts | 207° |
| 2026-05-07 04:49 | 49.24342 | 12.86950 | 24944 ft | 325 kts | 207° |
| 2026-05-07 04:49 | 49.22279 | 12.85455 | 24505 ft | 323 kts | 207° |
| 2026-05-07 04:50 | 49.20221 | 12.83960 | 24069 ft | 321 kts | 207° |
| 2026-05-07 04:50 | 49.18216 | 12.82501 | 23625 ft | 320 kts | 207° |
| 2026-05-07 04:50 | 49.16178 | 12.81022 | 23133 ft | 319 kts | 207° |
| 2026-05-07 04:50 | 49.14180 | 12.79576 | 22691 ft | 316 kts | 207° |
| 2026-05-07 04:51 | 49.12199 | 12.78144 | 22282 ft | 313 kts | 207° |
| 2026-05-07 04:51 | 49.10241 | 12.76730 | 21862 ft | 310 kts | 207° |
| 2026-05-07 04:51 | 49.08253 | 12.75294 | 21445 ft | 308 kts | 207° |
| 2026-05-07 04:51 | 49.06344 | 12.73914 | 21048 ft | 306 kts | 208° |
| 2026-05-07 04:52 | 49.04401 | 12.72509 | 20645 ft | 304 kts | 208° |
| 2026-05-07 04:52 | 49.02468 | 12.71116 | 20241 ft | 303 kts | 208° |
| 2026-05-07 04:52 | 49.00561 | 12.69746 | 19861 ft | 302 kts | 208° |
| 2026-05-07 04:52 | 48.98659 | 12.68382 | 19464 ft | 301 kts | 208° |
| 2026-05-07 04:53 | 48.96766 | 12.67027 | 19077 ft | 301 kts | 208° |
| 2026-05-07 04:53 | 48.94870 | 12.65671 | 18690 ft | 301 kts | 208° |
| 2026-05-07 04:53 | 48.92931 | 12.64286 | 18297 ft | 300 kts | 208° |
| 2026-05-07 04:53 | 48.91043 | 12.62935 | 17882 ft | 300 kts | 208° |
| 2026-05-07 04:54 | 48.89152 | 12.61585 | 17489 ft | 298 kts | 208° |
| 2026-05-07 04:54 | 48.87278 | 12.60250 | 17132 ft | 297 kts | 208° |
| 2026-05-07 04:54 | 48.85386 | 12.58899 | 16749 ft | 296 kts | 207° |
| 2026-05-07 04:54 | 48.83528 | 12.57576 | 16385 ft | 295 kts | 207° |
| 2026-05-07 04:55 | 48.81673 | 12.56261 | 16024 ft | 294 kts | 207° |
| 2026-05-07 04:55 | 48.79824 | 12.54954 | 15664 ft | 293 kts | 207° |
| 2026-05-07 04:55 | 48.77951 | 12.53633 | 15305 ft | 293 kts | 207° |
| 2026-05-07 04:55 | 48.76064 | 12.52367 | 14947 ft | 293 kts | 202° |
| 2026-05-07 04:56 | 48.74176 | 12.51346 | 14588 ft | 293 kts | 201° |
| 2026-05-07 04:56 | 48.72170 | 12.50262 | 14199 ft | 294 kts | 201° |
| 2026-05-07 04:56 | 48.70300 | 12.49255 | 13842 ft | 295 kts | 201° |
| 2026-05-07 04:56 | 48.68362 | 12.48217 | 13436 ft | 295 kts | 201° |
| 2026-05-07 04:57 | 48.66434 | 12.47185 | 13062 ft | 294 kts | 201° |
| 2026-05-07 04:57 | 48.64512 | 12.46153 | 12685 ft | 292 kts | 202° |
| 2026-05-07 04:57 | 48.62743 | 12.44697 | 12309 ft | 289 kts | 219° |
| 2026-05-07 04:57 | 48.61393 | 12.42481 | 11938 ft | 287 kts | 237° |
| 2026-05-07 04:58 | 48.60584 | 12.39747 | 11560 ft | 288 kts | 254° |
| 2026-05-07 04:58 | 48.60295 | 12.36742 | 11170 ft | 289 kts | 262° |
| 2026-05-07 04:58 | 48.60078 | 12.33640 | 10777 ft | 288 kts | 262° |
| 2026-05-07 04:58 | 48.59871 | 12.30724 | 10391 ft | 288 kts | 262° |
| 2026-05-07 04:59 | 48.59657 | 12.27733 | 10203 ft | 280 kts | 262° |
| 2026-05-07 04:59 | 48.59487 | 12.24800 | 9917 ft | 277 kts | 264° |
| 2026-05-07 04:59 | 48.59379 | 12.21914 | 9755 ft | 273 kts | 265° |
| 2026-05-07 04:59 | 48.59292 | 12.19054 | 9633 ft | 273 kts | 265° |
| 2026-05-07 05:00 | 48.59204 | 12.16189 | 9523 ft | 272 kts | 265° |
| 2026-05-07 05:00 | 48.59142 | 12.14283 | 9442 ft | 272 kts | 265° |
| 2026-05-07 05:00 | 48.59045 | 12.11418 | 9347 ft | 271 kts | 264° |
| 2026-05-07 05:00 | 48.58943 | 12.08532 | 9226 ft | 270 kts | 264° |
| 2026-05-07 05:01 | 48.58839 | 12.05671 | 8854 ft | 269 kts | 264° |
| 2026-05-07 05:01 | 48.58734 | 12.02830 | 8473 ft | 268 kts | 265° |
| 2026-05-07 05:01 | 48.58625 | 11.99922 | 8084 ft | 266 kts | 265° |
| 2026-05-07 05:01 | 48.58463 | 11.97210 | 7707 ft | 264 kts | 255° |
| 2026-05-07 05:02 | 48.57726 | 11.94720 | 7339 ft | 261 kts | 233° |
| 2026-05-07 05:02 | 48.56381 | 11.92903 | 6951 ft | 261 kts | 210° |
| 2026-05-07 05:02 | 48.54652 | 11.92098 | 6562 ft | 264 kts | 186° |
| 2026-05-07 05:02 | 48.52826 | 11.92474 | 6155 ft | 269 kts | 161° |
| 2026-05-07 05:03 | 48.51238 | 11.93958 | 5728 ft | 273 kts | 143° |
| 2026-05-07 05:03 | 48.49791 | 11.95748 | 5558 ft | 263 kts | 142° |
| 2026-05-07 05:03 | 48.48407 | 11.97471 | 5434 ft | 253 kts | 142° |
| 2026-05-07 05:03 | 48.47077 | 11.99122 | 5308 ft | 242 kts | 142° |
| 2026-05-07 05:04 | 48.45792 | 12.00712 | 5113 ft | 236 kts | 143° |
| 2026-05-07 05:04 | 48.44508 | 12.02297 | 5005 ft | 236 kts | 142° |
| 2026-05-07 05:04 | 48.43239 | 12.03865 | 5003 ft | 237 kts | 142° |
| 2026-05-07 05:04 | 48.41931 | 12.05418 | 4993 ft | 234 kts | 150° |
| 2026-05-07 05:05 | 48.40467 | 12.06008 | 4997 ft | 214 kts | 187° |
| 2026-05-07 05:05 | 48.39127 | 12.05235 | 5001 ft | 200 kts | 222° |
| 2026-05-07 05:05 | 48.38371 | 12.03652 | 5011 ft | 180 kts | 252° |
| 2026-05-07 05:05 | 48.38167 | 12.01871 | 4879 ft | 171 kts | 264° |
| 2026-05-07 05:06 | 48.38035 | 12.00052 | 4422 ft | 177 kts | 264° |
| 2026-05-07 05:06 | 48.37898 | 11.98189 | 3923 ft | 176 kts | 264° |
| 2026-05-07 05:06 | 48.37763 | 11.96385 | 3551 ft | 170 kts | 264° |
| 2026-05-07 05:06 | 48.37633 | 11.94649 | 3285 ft | 160 kts | 264° |
| 2026-05-07 05:07 | 48.37512 | 11.93040 | 3077 ft | 151 kts | 264° |
| 2026-05-07 05:07 | 48.37396 | 11.91498 | 2868 ft | 146 kts | 264° |
| 2026-05-07 05:07 | 48.37365 | 11.91086 | 2818 ft | 146 kts | 264° |
| 2026-05-07 05:08 | 48.37332 | 11.90673 | 2740 ft | 145 kts | 263° |
| 2026-05-07 05:08 | 48.37220 | 11.89175 | 2537 ft | 145 kts | 264° |
| 2026-05-07 05:08 | 48.37107 | 11.87674 | 2287 ft | 145 kts | 263° |
| 2026-05-07 05:08 | 48.36994 | 11.86171 | 2061 ft | 144 kts | 263° |
| 2026-05-07 05:09 | 48.36878 | 11.84645 | 1844 ft | 144 kts | 262° |
| 2026-05-07 05:09 | 48.36764 | 11.83165 | 1662 ft | 143 kts | 263° |
| 2026-05-07 05:09 | 48.36651 | 11.81687 | 1505 ft | 140 kts | 263° |
| 2026-05-07 05:09 | 48.36556 | 11.80396 | 1485 ft | 103 kts | 263° |
| 2026-05-07 05:10 | 48.36492 | 11.79573 | 1481 ft | 53 kts | 263° |
| 2026-05-07 05:10 | 48.36456 | 11.79119 | 1482 ft | 34 kts | 258° |
| 2026-05-07 05:10 | 48.36376 | 11.78862 | 1482 ft | 23 kts | 236° |
| 2026-05-07 05:10 | 48.36307 | 11.78719 | 1475 ft | 10 kts | 234° |
| 2026-05-07 05:11 | 48.36259 | 11.78619 | 1481 ft | 12 kts | 234° |
| 2026-05-07 05:11 | 48.36214 | 11.78527 | 1473 ft | 9 kts | 233° |
| 2026-05-07 05:11 | 48.36157 | 11.78489 | 1485 ft | 10 kts | 164° |
| 2026-05-07 05:11 | 48.36144 | 11.78566 | 1485 ft | 8 kts | 84° |
| 2026-05-07 05:12 | 48.36152 | 11.78675 | 1478 ft | 12 kts | 83° |
| 2026-05-07 05:12 | 48.36163 | 11.78818 | 1483 ft | 17 kts | 84° |
| 2026-05-07 05:12 | 48.36178 | 11.79014 | 1485 ft | 20 kts | 84° |
| 2026-05-07 05:12 | 48.36195 | 11.79228 | 1479 ft | 21 kts | 83° |
| 2026-05-07 05:13 | 48.36209 | 11.79413 | 1475 ft | 10 kts | 91° |
| 2026-05-07 05:13 | 48.36158 | 11.79467 | 1477 ft | 10 kts | 174° |
| 2026-05-07 05:13 | 48.36082 | 11.79480 | 1483 ft | 12 kts | 173° |
| 2026-05-07 05:13 | 48.35995 | 11.79496 | 1474 ft | 13 kts | 173° |
| 2026-05-07 05:14 | 48.35900 | 11.79511 | 1485 ft | 15 kts | 174° |
| 2026-05-07 05:14 | 48.35794 | 11.79530 | 1485 ft | 16 kts | 173° |
| 2026-05-07 05:14 | 48.35683 | 11.79551 | 1478 ft | 16 kts | 173° |
| 2026-05-07 05:14 | 48.35614 | 11.79565 | 1476 ft | 6 kts | 164° |
| 2026-05-07 05:15 | 48.35611 | 11.79609 | 1481 ft | 5 kts | 84° |
| 2026-05-07 05:15 | 48.35616 | 11.79669 | 1482 ft | 6 kts | 82° |
| 2026-05-07 05:15 | 48.35620 | 11.79712 | 1476 ft | 2 kts | 83° |
| 2026-05-07 05:15 | 48.35620 | 11.79719 | 1478 ft | 0 kts | 83° |